sensor_id;sensor_type;location;lat;lon;timestamp;P1;durP1;ratioP1;P2;durP2;ratioP2
19507;SDS011;40157;42.566;27.526;2023-03-01T00:01:53;12.13;;;4.87;;
19507;SDS011;40157;42.566;27.526;2023-03-01T00:03:54;9.10;;;4.50;;
19507;SDS011;40157;42.566;27.526;2023-03-01T00:05:55;8.53;;;4.10;;
19507;SDS011;40157;42.566;27.526;2023-03-01T00:07:55;9.53;;;4.77;;
19507;SDS011;40157;42.566;27.526;2023-03-01T00:09:56;8.63;;;4.80;;
19507;SDS011;40157;42.566;27.526;2023-03-01T00:11:56;8.37;;;4.20;;
19507;SDS011;40157;42.566;27.526;2023-03-01T00:13:58;8.47;;;4.47;;
19507;SDS011;40157;42.566;27.526;2023-03-01T00:16:04;11.00;;;5.40;;
19507;SDS011;40157;42.566;27.526;2023-03-01T00:18:07;8.10;;;4.97;;
19507;SDS011;40157;42.566;27.526;2023-03-01T00:20:08;9.83;;;5.00;;
19507;SDS011;40157;42.566;27.526;2023-03-01T00:22:10;9.70;;;5.37;;
19507;SDS011;40157;42.566;27.526;2023-03-01T00:24:10;9.30;;;5.00;;
19507;SDS011;40157;42.566;27.526;2023-03-01T00:26:12;8.63;;;5.10;;
19507;SDS011;40157;42.566;27.526;2023-03-01T00:28:13;10.27;;;5.43;;
19507;SDS011;40157;42.566;27.526;2023-03-01T00:30:14;8.83;;;5.23;;
19507;SDS011;40157;42.566;27.526;2023-03-01T00:32:15;11.73;;;6.13;;
19507;SDS011;40157;42.566;27.526;2023-03-01T00:34:15;10.43;;;5.07;;
19507;SDS011;40157;42.566;27.526;2023-03-01T00:36:16;12.73;;;5.77;;
19507;SDS011;40157;42.566;27.526;2023-03-01T00:38:16;11.27;;;6.23;;
19507;SDS011;40157;42.566;27.526;2023-03-01T00:40:17;10.40;;;5.57;;
19507;SDS011;40157;42.566;27.526;2023-03-01T00:42:17;15.43;;;6.40;;
19507;SDS011;40157;42.566;27.526;2023-03-01T00:44:18;16.90;;;6.20;;
19507;SDS011;40157;42.566;27.526;2023-03-01T00:46:19;11.97;;;5.53;;
19507;SDS011;40157;42.566;27.526;2023-03-01T00:48:21;11.23;;;5.80;;
19507;SDS011;40157;42.566;27.526;2023-03-01T00:50:22;11.93;;;6.13;;
19507;SDS011;40157;42.566;27.526;2023-03-01T00:52:23;11.60;;;5.60;;
19507;SDS011;40157;42.566;27.526;2023-03-01T00:54:24;12.67;;;6.13;;
19507;SDS011;40157;42.566;27.526;2023-03-01T00:56:24;13.33;;;5.53;;
19507;SDS011;40157;42.566;27.526;2023-03-01T00:58:25;11.17;;;5.90;;
19507;SDS011;40157;42.566;27.526;2023-03-01T01:00:26;9.60;;;5.27;;
19507;SDS011;40157;42.566;27.526;2023-03-01T01:02:27;12.13;;;5.60;;
19507;SDS011;40157;42.566;27.526;2023-03-01T01:04:28;10.53;;;5.40;;
19507;SDS011;40157;42.566;27.526;2023-03-01T01:06:29;7.03;;;4.70;;
19507;SDS011;40157;42.566;27.526;2023-03-01T01:08:32;8.73;;;5.27;;
19507;SDS011;40157;42.566;27.526;2023-03-01T01:10:35;8.90;;;4.97;;
19507;SDS011;40157;42.566;27.526;2023-03-01T01:12:36;11.77;;;5.17;;
19507;SDS011;40157;42.566;27.526;2023-03-01T01:14:37;11.50;;;6.10;;
19507;SDS011;40157;42.566;27.526;2023-03-01T01:16:38;13.50;;;5.30;;
19507;SDS011;40157;42.566;27.526;2023-03-01T01:18:39;11.97;;;5.73;;
19507;SDS011;40157;42.566;27.526;2023-03-01T01:20:40;11.80;;;5.77;;
19507;SDS011;40157;42.566;27.526;2023-03-01T01:22:41;10.77;;;5.53;;
19507;SDS011;40157;42.566;27.526;2023-03-01T01:24:41;9.17;;;5.17;;
19507;SDS011;40157;42.566;27.526;2023-03-01T01:26:42;9.20;;;5.17;;
19507;SDS011;40157;42.566;27.526;2023-03-01T01:28:43;8.13;;;4.90;;
19507;SDS011;40157;42.566;27.526;2023-03-01T01:30:44;13.43;;;5.60;;
19507;SDS011;40157;42.566;27.526;2023-03-01T01:32:44;11.20;;;5.57;;
19507;SDS011;40157;42.566;27.526;2023-03-01T01:34:45;10.43;;;5.03;;
19507;SDS011;40157;42.566;27.526;2023-03-01T01:36:49;9.40;;;4.80;;
19507;SDS011;40157;42.566;27.526;2023-03-01T01:38:50;8.97;;;5.00;;
19507;SDS011;40157;42.566;27.526;2023-03-01T01:40:51;10.50;;;4.70;;
19507;SDS011;40157;42.566;27.526;2023-03-01T01:42:51;9.00;;;5.13;;
19507;SDS011;40157;42.566;27.526;2023-03-01T01:47:30;12.53;;;5.47;;
19507;SDS011;40157;42.566;27.526;2023-03-01T01:49:33;10.33;;;5.13;;
19507;SDS011;40157;42.566;27.526;2023-03-01T01:51:42;10.07;;;5.40;;
19507;SDS011;40157;42.566;27.526;2023-03-01T01:53:47;8.13;;;4.30;;
19507;SDS011;40157;42.566;27.526;2023-03-01T01:55:55;9.00;;;4.57;;
19507;SDS011;40157;42.566;27.526;2023-03-01T01:58:01;6.80;;;4.53;;
19507;SDS011;40157;42.566;27.526;2023-03-01T02:00:07;8.40;;;4.63;;
19507;SDS011;40157;42.566;27.526;2023-03-01T02:02:11;11.60;;;5.30;;
19507;SDS011;40157;42.566;27.526;2023-03-01T02:04:13;9.40;;;4.63;;
19507;SDS011;40157;42.566;27.526;2023-03-01T02:06:18;8.43;;;4.97;;
19507;SDS011;40157;42.566;27.526;2023-03-01T02:08:20;8.23;;;4.43;;
19507;SDS011;40157;42.566;27.526;2023-03-01T02:10:22;7.13;;;4.20;;
19507;SDS011;40157;42.566;27.526;2023-03-01T02:12:24;11.77;;;4.53;;
19507;SDS011;40157;42.566;27.526;2023-03-01T02:14:25;6.80;;;3.93;;
19507;SDS011;40157;42.566;27.526;2023-03-01T02:16:26;6.83;;;4.13;;
19507;SDS011;40157;42.566;27.526;2023-03-01T02:18:27;10.00;;;4.10;;
19507;SDS011;40157;42.566;27.526;2023-03-01T02:20:35;9.33;;;4.30;;
19507;SDS011;40157;42.566;27.526;2023-03-01T02:22:43;5.83;;;3.80;;
19507;SDS011;40157;42.566;27.526;2023-03-01T02:27:10;6.43;;;3.83;;
19507;SDS011;40157;42.566;27.526;2023-03-01T02:29:12;5.73;;;3.60;;
19507;SDS011;40157;42.566;27.526;2023-03-01T02:31:14;5.67;;;3.53;;
19507;SDS011;40157;42.566;27.526;2023-03-01T02:33:37;6.10;;;3.10;;
19507;SDS011;40157;42.566;27.526;2023-03-01T02:35:38;6.97;;;3.37;;
19507;SDS011;40157;42.566;27.526;2023-03-01T02:37:40;4.90;;;2.83;;
19507;SDS011;40157;42.566;27.526;2023-03-01T02:39:44;4.53;;;2.83;;
19507;SDS011;40157;42.566;27.526;2023-03-01T02:41:49;7.77;;;3.03;;
19507;SDS011;40157;42.566;27.526;2023-03-01T02:43:52;7.20;;;3.20;;
19507;SDS011;40157;42.566;27.526;2023-03-01T02:45:53;7.30;;;3.23;;
19507;SDS011;40157;42.566;27.526;2023-03-01T02:47:58;11.17;;;3.23;;
19507;SDS011;40157;42.566;27.526;2023-03-01T02:49:58;7.93;;;3.23;;
19507;SDS011;40157;42.566;27.526;2023-03-01T02:54:38;7.60;;;3.43;;
19507;SDS011;40157;42.566;27.526;2023-03-01T02:56:43;6.70;;;2.97;;
19507;SDS011;40157;42.566;27.526;2023-03-01T02:58:48;7.47;;;3.50;;
19507;SDS011;40157;42.566;27.526;2023-03-01T03:00:51;8.00;;;3.63;;
19507;SDS011;40157;42.566;27.526;2023-03-01T03:02:52;5.80;;;3.47;;
19507;SDS011;40157;42.566;27.526;2023-03-01T03:04:54;6.10;;;3.33;;
19507;SDS011;40157;42.566;27.526;2023-03-01T03:06:54;9.13;;;4.20;;
19507;SDS011;40157;42.566;27.526;2023-03-01T03:08:55;8.63;;;3.90;;
19507;SDS011;40157;42.566;27.526;2023-03-01T03:10:55;10.70;;;3.90;;
19507;SDS011;40157;42.566;27.526;2023-03-01T03:12:57;8.03;;;3.53;;
19507;SDS011;40157;42.566;27.526;2023-03-01T03:15:00;9.50;;;3.80;;
19507;SDS011;40157;42.566;27.526;2023-03-01T03:17:00;8.77;;;3.53;;
19507;SDS011;40157;42.566;27.526;2023-03-01T03:19:01;8.53;;;3.83;;
19507;SDS011;40157;42.566;27.526;2023-03-01T03:21:07;7.90;;;3.23;;
19507;SDS011;40157;42.566;27.526;2023-03-01T03:23:10;10.60;;;3.60;;
19507;SDS011;40157;42.566;27.526;2023-03-01T03:25:11;6.77;;;3.10;;
19507;SDS011;40157;42.566;27.526;2023-03-01T03:27:12;9.13;;;3.17;;
19507;SDS011;40157;42.566;27.526;2023-03-01T03:29:12;5.90;;;3.17;;
19507;SDS011;40157;42.566;27.526;2023-03-01T03:31:13;5.07;;;2.73;;
19507;SDS011;40157;42.566;27.526;2023-03-01T03:33:13;4.97;;;2.97;;
19507;SDS011;40157;42.566;27.526;2023-03-01T03:35:14;4.47;;;2.60;;
19507;SDS011;40157;42.566;27.526;2023-03-01T03:37:14;5.33;;;2.83;;
19507;SDS011;40157;42.566;27.526;2023-03-01T03:39:33;4.67;;;2.53;;
19507;SDS011;40157;42.566;27.526;2023-03-01T03:41:34;10.33;;;2.97;;
19507;SDS011;40157;42.566;27.526;2023-03-01T03:43:36;6.47;;;3.20;;
19507;SDS011;40157;42.566;27.526;2023-03-01T03:45:38;7.93;;;3.00;;
19507;SDS011;40157;42.566;27.526;2023-03-01T03:47:39;4.90;;;3.10;;
19507;SDS011;40157;42.566;27.526;2023-03-01T03:49:39;6.70;;;3.77;;
19507;SDS011;40157;42.566;27.526;2023-03-01T03:51:40;6.47;;;3.70;;
19507;SDS011;40157;42.566;27.526;2023-03-01T03:53:40;8.53;;;3.90;;
19507;SDS011;40157;42.566;27.526;2023-03-01T03:55:42;7.97;;;4.10;;
19507;SDS011;40157;42.566;27.526;2023-03-01T03:57:45;7.00;;;4.37;;
19507;SDS011;40157;42.566;27.526;2023-03-01T03:59:51;7.63;;;3.97;;
19507;SDS011;40157;42.566;27.526;2023-03-01T04:01:51;12.03;;;4.70;;
19507;SDS011;40157;42.566;27.526;2023-03-01T04:03:52;12.67;;;4.53;;
19507;SDS011;40157;42.566;27.526;2023-03-01T04:05:54;8.93;;;4.50;;
19507;SDS011;40157;42.566;27.526;2023-03-01T04:07:57;9.30;;;4.87;;
19507;SDS011;40157;42.566;27.526;2023-03-01T04:10:08;15.27;;;5.30;;
19507;SDS011;40157;42.566;27.526;2023-03-01T04:12:10;10.23;;;5.43;;
19507;SDS011;40157;42.566;27.526;2023-03-01T04:14:11;10.50;;;5.40;;
19507;SDS011;40157;42.566;27.526;2023-03-01T04:16:11;14.87;;;6.53;;
19507;SDS011;40157;42.566;27.526;2023-03-01T04:18:12;15.33;;;6.40;;
19507;SDS011;40157;42.566;27.526;2023-03-01T04:20:15;15.17;;;5.80;;
19507;SDS011;40157;42.566;27.526;2023-03-01T04:22:18;14.80;;;6.23;;
19507;SDS011;40157;42.566;27.526;2023-03-01T04:24:18;12.60;;;5.90;;
19507;SDS011;40157;42.566;27.526;2023-03-01T04:26:19;16.37;;;6.83;;
19507;SDS011;40157;42.566;27.526;2023-03-01T04:28:21;16.00;;;6.00;;
19507;SDS011;40157;42.566;27.526;2023-03-01T04:30:26;20.20;;;7.03;;
19507;SDS011;40157;42.566;27.526;2023-03-01T04:32:26;14.13;;;5.60;;
19507;SDS011;40157;42.566;27.526;2023-03-01T04:34:27;15.77;;;8.27;;
19507;SDS011;40157;42.566;27.526;2023-03-01T04:36:28;14.07;;;7.30;;
19507;SDS011;40157;42.566;27.526;2023-03-01T04:38:29;18.90;;;7.10;;
19507;SDS011;40157;42.566;27.526;2023-03-01T04:40:29;13.80;;;6.70;;
19507;SDS011;40157;42.566;27.526;2023-03-01T04:42:30;14.50;;;6.70;;
19507;SDS011;40157;42.566;27.526;2023-03-01T04:44:32;14.10;;;7.67;;
19507;SDS011;40157;42.566;27.526;2023-03-01T04:46:33;18.63;;;8.73;;
19507;SDS011;40157;42.566;27.526;2023-03-01T04:48:33;17.97;;;8.10;;
19507;SDS011;40157;42.566;27.526;2023-03-01T04:50:34;16.50;;;8.03;;
19507;SDS011;40157;42.566;27.526;2023-03-01T04:52:35;18.23;;;9.73;;
19507;SDS011;40157;42.566;27.526;2023-03-01T04:54:35;19.80;;;7.70;;
19507;SDS011;40157;42.566;27.526;2023-03-01T04:56:36;11.73;;;6.60;;
19507;SDS011;40157;42.566;27.526;2023-03-01T04:58:36;19.07;;;7.10;;
19507;SDS011;40157;42.566;27.526;2023-03-01T05:00:37;13.60;;;6.83;;
19507;SDS011;40157;42.566;27.526;2023-03-01T05:02:37;15.47;;;7.00;;
19507;SDS011;40157;42.566;27.526;2023-03-01T05:04:38;16.17;;;7.90;;
19507;SDS011;40157;42.566;27.526;2023-03-01T05:06:38;13.00;;;7.57;;
19507;SDS011;40157;42.566;27.526;2023-03-01T05:08:39;15.17;;;7.30;;
19507;SDS011;40157;42.566;27.526;2023-03-01T05:10:41;18.17;;;7.73;;
19507;SDS011;40157;42.566;27.526;2023-03-01T05:12:42;15.20;;;7.57;;
19507;SDS011;40157;42.566;27.526;2023-03-01T05:14:42;13.63;;;6.70;;
19507;SDS011;40157;42.566;27.526;2023-03-01T05:16:42;12.97;;;6.67;;
19507;SDS011;40157;42.566;27.526;2023-03-01T05:18:43;15.37;;;7.37;;
19507;SDS011;40157;42.566;27.526;2023-03-01T05:20:43;12.47;;;6.93;;
19507;SDS011;40157;42.566;27.526;2023-03-01T05:22:44;13.87;;;7.17;;
19507;SDS011;40157;42.566;27.526;2023-03-01T05:24:45;16.73;;;7.23;;
19507;SDS011;40157;42.566;27.526;2023-03-01T05:26:46;14.97;;;6.90;;
19507;SDS011;40157;42.566;27.526;2023-03-01T05:28:48;12.97;;;6.73;;
19507;SDS011;40157;42.566;27.526;2023-03-01T05:30:49;17.70;;;7.00;;
19507;SDS011;40157;42.566;27.526;2023-03-01T05:32:51;13.40;;;6.90;;
19507;SDS011;40157;42.566;27.526;2023-03-01T05:34:55;13.80;;;7.77;;
19507;SDS011;40157;42.566;27.526;2023-03-01T05:36:55;15.63;;;6.83;;
19507;SDS011;40157;42.566;27.526;2023-03-01T05:38:56;14.57;;;6.77;;
19507;SDS011;40157;42.566;27.526;2023-03-01T05:40:56;16.17;;;7.03;;
19507;SDS011;40157;42.566;27.526;2023-03-01T05:42:57;14.73;;;7.47;;
19507;SDS011;40157;42.566;27.526;2023-03-01T05:44:57;12.33;;;5.90;;
19507;SDS011;40157;42.566;27.526;2023-03-01T05:46:58;13.00;;;6.33;;
19507;SDS011;40157;42.566;27.526;2023-03-01T05:48:58;12.20;;;6.00;;
19507;SDS011;40157;42.566;27.526;2023-03-01T05:51:00;11.47;;;5.90;;
19507;SDS011;40157;42.566;27.526;2023-03-01T05:53:01;16.07;;;6.13;;
19507;SDS011;40157;42.566;27.526;2023-03-01T05:55:05;18.40;;;6.43;;
19507;SDS011;40157;42.566;27.526;2023-03-01T05:57:06;19.63;;;7.03;;
19507;SDS011;40157;42.566;27.526;2023-03-01T05:59:07;14.30;;;7.33;;
19507;SDS011;40157;42.566;27.526;2023-03-01T06:01:11;12.57;;;6.53;;
19507;SDS011;40157;42.566;27.526;2023-03-01T06:03:14;10.07;;;5.83;;
19507;SDS011;40157;42.566;27.526;2023-03-01T06:05:15;12.60;;;5.83;;
19507;SDS011;40157;42.566;27.526;2023-03-01T06:07:16;14.33;;;7.43;;
19507;SDS011;40157;42.566;27.526;2023-03-01T06:09:16;12.53;;;6.77;;
19507;SDS011;40157;42.566;27.526;2023-03-01T06:11:17;14.07;;;6.33;;
19507;SDS011;40157;42.566;27.526;2023-03-01T06:13:18;11.63;;;6.03;;
19507;SDS011;40157;42.566;27.526;2023-03-01T06:15:18;11.73;;;5.00;;
19507;SDS011;40157;42.566;27.526;2023-03-01T06:17:19;12.47;;;5.70;;
19507;SDS011;40157;42.566;27.526;2023-03-01T06:19:19;10.40;;;5.33;;
19507;SDS011;40157;42.566;27.526;2023-03-01T06:21:20;9.57;;;5.90;;
19507;SDS011;40157;42.566;27.526;2023-03-01T06:23:21;12.23;;;5.40;;
19507;SDS011;40157;42.566;27.526;2023-03-01T06:25:23;14.23;;;6.27;;
19507;SDS011;40157;42.566;27.526;2023-03-01T06:27:25;10.83;;;5.57;;
19507;SDS011;40157;42.566;27.526;2023-03-01T06:29:25;9.40;;;5.57;;
19507;SDS011;40157;42.566;27.526;2023-03-01T06:31:26;9.40;;;5.20;;
19507;SDS011;40157;42.566;27.526;2023-03-01T06:33:26;11.07;;;4.90;;
19507;SDS011;40157;42.566;27.526;2023-03-01T06:35:27;11.00;;;5.30;;
19507;SDS011;40157;42.566;27.526;2023-03-01T06:37:31;10.13;;;5.07;;
19507;SDS011;40157;42.566;27.526;2023-03-01T06:39:31;12.10;;;5.87;;
19507;SDS011;40157;42.566;27.526;2023-03-01T06:41:32;11.17;;;5.27;;
19507;SDS011;40157;42.566;27.526;2023-03-01T06:43:33;12.03;;;6.10;;
19507;SDS011;40157;42.566;27.526;2023-03-01T06:45:34;11.53;;;5.17;;
19507;SDS011;40157;42.566;27.526;2023-03-01T06:47:34;13.27;;;5.67;;
19507;SDS011;40157;42.566;27.526;2023-03-01T06:49:35;14.07;;;5.80;;
19507;SDS011;40157;42.566;27.526;2023-03-01T06:51:36;12.03;;;5.53;;
19507;SDS011;40157;42.566;27.526;2023-03-01T06:53:36;10.67;;;5.57;;
19507;SDS011;40157;42.566;27.526;2023-03-01T06:55:37;12.20;;;5.20;;
19507;SDS011;40157;42.566;27.526;2023-03-01T06:57:37;11.43;;;5.57;;
19507;SDS011;40157;42.566;27.526;2023-03-01T06:59:38;14.87;;;5.13;;
19507;SDS011;40157;42.566;27.526;2023-03-01T07:01:38;12.50;;;5.53;;
19507;SDS011;40157;42.566;27.526;2023-03-01T07:03:39;7.80;;;4.23;;
19507;SDS011;40157;42.566;27.526;2023-03-01T07:05:39;11.77;;;5.40;;
19507;SDS011;40157;42.566;27.526;2023-03-01T07:07:40;11.53;;;5.37;;
19507;SDS011;40157;42.566;27.526;2023-03-01T07:09:40;8.73;;;4.90;;
19507;SDS011;40157;42.566;27.526;2023-03-01T07:11:41;11.77;;;5.27;;
19507;SDS011;40157;42.566;27.526;2023-03-01T07:13:41;10.07;;;5.50;;
19507;SDS011;40157;42.566;27.526;2023-03-01T07:15:42;8.80;;;5.53;;
19507;SDS011;40157;42.566;27.526;2023-03-01T07:17:42;12.17;;;5.00;;
19507;SDS011;40157;42.566;27.526;2023-03-01T07:19:44;11.27;;;5.50;;
19507;SDS011;40157;42.566;27.526;2023-03-01T07:21:45;10.57;;;5.80;;
19507;SDS011;40157;42.566;27.526;2023-03-01T07:23:47;11.37;;;5.53;;
19507;SDS011;40157;42.566;27.526;2023-03-01T07:25:54;8.47;;;5.17;;
19507;SDS011;40157;42.566;27.526;2023-03-01T07:27:54;10.90;;;5.77;;
19507;SDS011;40157;42.566;27.526;2023-03-01T07:29:55;16.63;;;5.40;;
19507;SDS011;40157;42.566;27.526;2023-03-01T07:31:55;10.60;;;5.70;;
19507;SDS011;40157;42.566;27.526;2023-03-01T07:33:56;13.00;;;5.90;;
19507;SDS011;40157;42.566;27.526;2023-03-01T07:36:00;12.77;;;5.40;;
19507;SDS011;40157;42.566;27.526;2023-03-01T07:38:02;9.30;;;5.67;;
19507;SDS011;40157;42.566;27.526;2023-03-01T07:40:03;12.67;;;5.87;;
19507;SDS011;40157;42.566;27.526;2023-03-01T07:42:03;11.80;;;5.20;;
19507;SDS011;40157;42.566;27.526;2023-03-01T07:44:04;10.47;;;5.20;;
19507;SDS011;40157;42.566;27.526;2023-03-01T07:46:05;11.50;;;5.70;;
19507;SDS011;40157;42.566;27.526;2023-03-01T07:48:06;10.63;;;5.53;;
19507;SDS011;40157;42.566;27.526;2023-03-01T07:50:06;12.17;;;5.70;;
19507;SDS011;40157;42.566;27.526;2023-03-01T07:52:09;10.27;;;5.30;;
19507;SDS011;40157;42.566;27.526;2023-03-01T07:54:11;10.90;;;5.73;;
19507;SDS011;40157;42.566;27.526;2023-03-01T07:56:12;12.73;;;6.10;;
19507;SDS011;40157;42.566;27.526;2023-03-01T07:58:14;12.90;;;6.00;;
19507;SDS011;40157;42.566;27.526;2023-03-01T08:00:14;11.83;;;6.23;;
19507;SDS011;40157;42.566;27.526;2023-03-01T08:02:15;10.10;;;5.40;;
19507;SDS011;40157;42.566;27.526;2023-03-01T08:04:16;10.73;;;5.63;;
19507;SDS011;40157;42.566;27.526;2023-03-01T08:06:17;9.50;;;5.03;;
19507;SDS011;40157;42.566;27.526;2023-03-01T08:08:18;16.07;;;6.77;;
19507;SDS011;40157;42.566;27.526;2023-03-01T08:10:18;12.20;;;5.50;;
19507;SDS011;40157;42.566;27.526;2023-03-01T08:12:19;9.67;;;5.63;;
19507;SDS011;40157;42.566;27.526;2023-03-01T08:14:19;13.10;;;6.47;;
19507;SDS011;40157;42.566;27.526;2023-03-01T08:16:20;10.57;;;4.83;;
19507;SDS011;40157;42.566;27.526;2023-03-01T08:18:21;13.00;;;6.10;;
19507;SDS011;40157;42.566;27.526;2023-03-01T08:20:21;10.77;;;5.77;;
19507;SDS011;40157;42.566;27.526;2023-03-01T08:22:22;12.77;;;6.17;;
19507;SDS011;40157;42.566;27.526;2023-03-01T08:24:22;10.83;;;5.77;;
19507;SDS011;40157;42.566;27.526;2023-03-01T08:26:23;15.50;;;5.97;;
19507;SDS011;40157;42.566;27.526;2023-03-01T08:28:23;16.27;;;6.43;;
19507;SDS011;40157;42.566;27.526;2023-03-01T08:30:23;11.30;;;5.60;;
19507;SDS011;40157;42.566;27.526;2023-03-01T08:32:24;14.30;;;6.53;;
19507;SDS011;40157;42.566;27.526;2023-03-01T08:34:24;11.83;;;5.73;;
19507;SDS011;40157;42.566;27.526;2023-03-01T08:36:26;11.80;;;5.90;;
19507;SDS011;40157;42.566;27.526;2023-03-01T08:38:31;13.87;;;5.90;;
19507;SDS011;40157;42.566;27.526;2023-03-01T08:40:31;9.60;;;5.27;;
19507;SDS011;40157;42.566;27.526;2023-03-01T08:42:32;16.20;;;6.17;;
19507;SDS011;40157;42.566;27.526;2023-03-01T08:44:36;23.07;;;6.33;;
19507;SDS011;40157;42.566;27.526;2023-03-01T08:46:37;13.53;;;6.20;;
19507;SDS011;40157;42.566;27.526;2023-03-01T08:48:40;12.63;;;5.90;;
19507;SDS011;40157;42.566;27.526;2023-03-01T08:50:43;15.20;;;6.83;;
19507;SDS011;40157;42.566;27.526;2023-03-01T08:52:43;11.40;;;6.47;;
19507;SDS011;40157;42.566;27.526;2023-03-01T08:54:43;14.73;;;6.27;;
19507;SDS011;40157;42.566;27.526;2023-03-01T08:56:44;12.97;;;6.40;;
19507;SDS011;40157;42.566;27.526;2023-03-01T08:58:45;14.87;;;6.77;;
19507;SDS011;40157;42.566;27.526;2023-03-01T09:00:47;10.43;;;5.70;;
19507;SDS011;40157;42.566;27.526;2023-03-01T09:02:47;15.40;;;7.07;;
19507;SDS011;40157;42.566;27.526;2023-03-01T09:04:48;14.10;;;7.27;;
19507;SDS011;40157;42.566;27.526;2023-03-01T09:06:48;12.20;;;6.67;;
19507;SDS011;40157;42.566;27.526;2023-03-01T09:08:49;12.97;;;6.63;;
19507;SDS011;40157;42.566;27.526;2023-03-01T09:10:50;18.17;;;7.33;;
19507;SDS011;40157;42.566;27.526;2023-03-01T09:12:51;14.80;;;7.07;;
19507;SDS011;40157;42.566;27.526;2023-03-01T09:14:51;14.43;;;7.27;;
19507;SDS011;40157;42.566;27.526;2023-03-01T09:16:52;17.40;;;8.17;;
19507;SDS011;40157;42.566;27.526;2023-03-01T09:18:53;16.93;;;7.80;;
19507;SDS011;40157;42.566;27.526;2023-03-01T09:21:01;15.33;;;7.27;;
19507;SDS011;40157;42.566;27.526;2023-03-01T09:23:07;15.27;;;7.27;;
19507;SDS011;40157;42.566;27.526;2023-03-01T09:25:07;15.03;;;7.77;;
19507;SDS011;40157;42.566;27.526;2023-03-01T09:27:08;13.03;;;6.90;;
19507;SDS011;40157;42.566;27.526;2023-03-01T09:29:08;15.70;;;8.27;;
19507;SDS011;40157;42.566;27.526;2023-03-01T09:31:09;14.87;;;7.73;;
19507;SDS011;40157;42.566;27.526;2023-03-01T09:33:12;14.90;;;7.80;;
19507;SDS011;40157;42.566;27.526;2023-03-01T09:35:14;16.20;;;8.00;;
19507;SDS011;40157;42.566;27.526;2023-03-01T09:37:15;13.43;;;7.23;;
19507;SDS011;40157;42.566;27.526;2023-03-01T09:39:15;18.50;;;9.20;;
19507;SDS011;40157;42.566;27.526;2023-03-01T09:43:31;19.83;;;8.63;;
19507;SDS011;40157;42.566;27.526;2023-03-01T09:45:41;13.87;;;7.63;;
19507;SDS011;40157;42.566;27.526;2023-03-01T09:47:45;19.10;;;8.70;;
19507;SDS011;40157;42.566;27.526;2023-03-01T09:50:19;17.67;;;8.80;;
19507;SDS011;40157;42.566;27.526;2023-03-01T09:54:19;18.27;;;9.33;;
19507;SDS011;40157;42.566;27.526;2023-03-01T10:00:59;16.53;;;8.40;;
19507;SDS011;40157;42.566;27.526;2023-03-01T10:03:17;24.57;;;8.77;;
19507;SDS011;40157;42.566;27.526;2023-03-01T10:08:54;16.07;;;7.90;;
19507;SDS011;40157;42.566;27.526;2023-03-01T10:10:43;18.37;;;8.10;;
19507;SDS011;40157;42.566;27.526;2023-03-01T10:12:46;15.90;;;8.33;;
19507;SDS011;40157;42.566;27.526;2023-03-01T10:16:55;15.67;;;7.13;;
19507;SDS011;40157;42.566;27.526;2023-03-01T10:18:59;19.10;;;8.13;;
19507;SDS011;40157;42.566;27.526;2023-03-01T10:21:05;18.20;;;8.93;;
19507;SDS011;40157;42.566;27.526;2023-03-01T10:23:13;22.73;;;8.37;;
19507;SDS011;40157;42.566;27.526;2023-03-01T10:25:14;18.93;;;8.10;;
19507;SDS011;40157;42.566;27.526;2023-03-01T10:27:22;20.97;;;8.47;;
19507;SDS011;40157;42.566;27.526;2023-03-01T10:29:37;16.67;;;8.33;;
19507;SDS011;40157;42.566;27.526;2023-03-01T10:31:47;19.00;;;8.03;;
19507;SDS011;40157;42.566;27.526;2023-03-01T10:33:50;20.57;;;9.03;;
19507;SDS011;40157;42.566;27.526;2023-03-01T10:35:55;17.67;;;8.00;;
19507;SDS011;40157;42.566;27.526;2023-03-01T10:38:06;18.13;;;9.07;;
19507;SDS011;40157;42.566;27.526;2023-03-01T10:40:08;20.70;;;8.77;;
19507;SDS011;40157;42.566;27.526;2023-03-01T10:42:19;19.67;;;9.10;;
19507;SDS011;40157;42.566;27.526;2023-03-01T10:44:39;20.50;;;8.43;;
19507;SDS011;40157;42.566;27.526;2023-03-01T10:46:42;21.07;;;8.40;;
19507;SDS011;40157;42.566;27.526;2023-03-01T10:48:42;14.17;;;8.50;;
19507;SDS011;40157;42.566;27.526;2023-03-01T10:50:44;18.83;;;8.70;;
19507;SDS011;40157;42.566;27.526;2023-03-01T10:52:57;19.50;;;8.20;;
19507;SDS011;40157;42.566;27.526;2023-03-01T10:55:01;17.67;;;8.73;;
19507;SDS011;40157;42.566;27.526;2023-03-01T10:57:30;14.53;;;7.70;;
19507;SDS011;40157;42.566;27.526;2023-03-01T10:59:35;17.07;;;9.10;;
19507;SDS011;40157;42.566;27.526;2023-03-01T11:01:37;20.13;;;8.90;;
19507;SDS011;40157;42.566;27.526;2023-03-01T11:03:38;23.13;;;9.13;;
19507;SDS011;40157;42.566;27.526;2023-03-01T11:05:52;20.57;;;9.33;;
19507;SDS011;40157;42.566;27.526;2023-03-01T11:08:01;20.00;;;10.30;;
19507;SDS011;40157;42.566;27.526;2023-03-01T11:10:11;22.60;;;10.27;;
19507;SDS011;40157;42.566;27.526;2023-03-01T11:12:15;20.37;;;10.27;;
19507;SDS011;40157;42.566;27.526;2023-03-01T11:18:27;20.77;;;10.50;;
19507;SDS011;40157;42.566;27.526;2023-03-01T11:20:34;17.07;;;10.20;;
19507;SDS011;40157;42.566;27.526;2023-03-01T11:22:36;20.93;;;10.90;;
19507;SDS011;40157;42.566;27.526;2023-03-01T11:24:53;20.40;;;9.60;;
19507;SDS011;40157;42.566;27.526;2023-03-01T11:26:55;25.17;;;10.93;;
19507;SDS011;40157;42.566;27.526;2023-03-01T11:28:58;18.30;;;9.70;;
19507;SDS011;40157;42.566;27.526;2023-03-01T11:33:58;18.80;;;10.90;;
19507;SDS011;40157;42.566;27.526;2023-03-01T11:35:54;20.70;;;10.73;;
19507;SDS011;40157;42.566;27.526;2023-03-01T11:40:17;24.00;;;11.17;;
19507;SDS011;40157;42.566;27.526;2023-03-01T11:42:47;24.97;;;12.00;;
19507;SDS011;40157;42.566;27.526;2023-03-01T11:44:52;26.33;;;11.60;;
19507;SDS011;40157;42.566;27.526;2023-03-01T11:49:12;40.93;;;17.13;;
19507;SDS011;40157;42.566;27.526;2023-03-01T11:51:24;36.43;;;15.53;;
19507;SDS011;40157;42.566;27.526;2023-03-01T11:56:02;27.43;;;11.83;;
19507;SDS011;40157;42.566;27.526;2023-03-01T12:00:36;17.07;;;8.87;;
19507;SDS011;40157;42.566;27.526;2023-03-01T12:05:31;15.33;;;8.27;;
19507;SDS011;40157;42.566;27.526;2023-03-01T12:14:48;15.73;;;8.53;;
19507;SDS011;40157;42.566;27.526;2023-03-01T12:21:39;12.13;;;6.43;;
19507;SDS011;40157;42.566;27.526;2023-03-01T12:26:32;13.20;;;6.03;;
19507;SDS011;40157;42.566;27.526;2023-03-01T12:30:59;10.60;;;5.47;;
19507;SDS011;40157;42.566;27.526;2023-03-01T12:47:00;14.37;;;5.63;;
19507;SDS011;40157;42.566;27.526;2023-03-01T12:49:20;10.93;;;5.93;;
19507;SDS011;40157;42.566;27.526;2023-03-01T12:51:29;13.17;;;6.80;;
19507;SDS011;40157;42.566;27.526;2023-03-01T12:53:34;10.03;;;5.93;;
19507;SDS011;40157;42.566;27.526;2023-03-01T12:55:40;15.30;;;7.17;;
19507;SDS011;40157;42.566;27.526;2023-03-01T12:57:46;11.40;;;6.83;;
19507;SDS011;40157;42.566;27.526;2023-03-01T13:11:40;18.37;;;7.93;;
19507;SDS011;40157;42.566;27.526;2023-03-01T13:13:42;17.20;;;7.33;;
19507;SDS011;40157;42.566;27.526;2023-03-01T13:15:42;13.70;;;7.20;;
19507;SDS011;40157;42.566;27.526;2023-03-01T13:17:43;16.33;;;7.33;;
19507;SDS011;40157;42.566;27.526;2023-03-01T13:19:55;18.97;;;8.33;;
19507;SDS011;40157;42.566;27.526;2023-03-01T13:21:57;17.73;;;7.63;;
19507;SDS011;40157;42.566;27.526;2023-03-01T13:23:59;16.87;;;7.53;;